createdAt,value
2018-04-29T00:01:57.168Z,61.34
2018-04-29T00:05:20.803Z,61.69
2018-04-29T00:08:43.660Z,60.92
2018-04-29T00:12:06.568Z,61.76
2018-04-29T00:15:29.421Z,61.95
2018-04-29T00:18:52.356Z,61.73
2018-04-29T00:22:15.286Z,61.93
2018-04-29T00:25:38.906Z,62.36
2018-04-29T00:29:01.763Z,61.81
2018-04-29T00:32:24.656Z,61.78
2018-04-29T00:35:47.536Z,61.60
2018-04-29T00:39:10.449Z,61.12
2018-04-29T00:42:33.292Z,62.40
2018-04-29T00:45:56.143Z,61.93
2018-04-29T00:49:18.980Z,62.63
2018-04-29T00:52:41.808Z,62.21
2018-04-29T00:56:04.711Z,61.39
2018-04-29T00:59:28.333Z,61.57
2018-04-29T01:02:51.188Z,62.04
2018-04-29T01:06:14.076Z,62.51
2018-04-29T01:09:36.963Z,61.90
2018-04-29T01:12:59.875Z,62.89
2018-04-29T01:16:22.722Z,61.75
2018-04-29T01:19:45.591Z,64.01
2018-04-29T01:23:09.936Z,63.02
2018-04-29T01:26:32.781Z,63.20
2018-04-29T01:29:55.654Z,62.77
2018-04-29T01:33:19.313Z,63.43
2018-04-29T01:36:42.938Z,62.82
2018-04-29T01:40:05.893Z,61.27
2018-04-29T01:43:29.497Z,61.50
2018-04-29T01:46:52.337Z,61.27
2018-04-29T01:50:15.193Z,61.64
2018-04-29T01:53:38.045Z,62.38
2018-04-29T01:57:00.893Z,61.25
2018-04-29T02:00:23.743Z,61.48
2018-04-29T02:03:46.594Z,60.91
2018-04-29T02:07:09.524Z,62.09
2018-04-29T02:10:32.430Z,61.54
2018-04-29T02:13:55.301Z,61.96
2018-04-29T02:17:19.067Z,63.28
2018-04-29T02:20:41.925Z,63.28
2018-04-29T02:24:04.838Z,63.50
2018-04-29T02:27:27.712Z,64.09
2018-04-29T02:30:51.324Z,64.59
2018-04-29T02:34:14.179Z,64.58
2018-04-29T02:37:37.049Z,64.15
2018-04-29T02:41:00.679Z,64.50
2018-04-29T02:44:23.555Z,64.90
2018-04-29T02:47:47.191Z,65.77
2018-04-29T02:51:10.097Z,64.75
2018-04-29T02:54:32.951Z,65.45
2018-04-29T02:57:55.805Z,65.43
2018-04-29T03:01:19.682Z,65.55
2018-04-29T03:04:43.296Z,64.73
2018-04-29T03:08:06.156Z,64.79
2018-04-29T03:11:29.008Z,65.11
2018-04-29T03:14:51.961Z,65.29
2018-04-29T03:18:14.838Z,65.02
2018-04-29T03:21:37.688Z,65.49
2018-04-29T03:25:00.539Z,65.80
2018-04-29T03:28:23.386Z,65.81
2018-04-29T03:31:46.224Z,65.35
2018-04-29T03:35:09.322Z,64.52
2018-04-29T03:38:34.019Z,64.90
2018-04-29T03:41:56.909Z,65.05
2018-04-29T03:45:20.532Z,64.74
2018-04-29T03:48:43.389Z,64.78
2018-04-29T03:52:06.236Z,65.64
2018-04-29T03:55:29.156Z,66.05
2018-04-29T03:59:03.849Z,66.29
2018-04-29T04:02:38.534Z,65.67
2018-04-29T04:06:01.392Z,65.40
2018-04-29T04:09:24.266Z,65.98
2018-04-29T04:12:47.158Z,66.56
2018-04-29T04:16:10.005Z,66.94
2018-04-29T04:19:32.948Z,67.01
2018-04-29T04:22:56.615Z,67.41
2018-04-29T04:26:20.224Z,67.01
2018-04-29T04:29:43.101Z,67.21
2018-04-29T04:33:06.015Z,66.48
2018-04-29T04:36:28.862Z,66.26
2018-04-29T04:39:51.784Z,65.50
2018-04-29T04:43:14.622Z,65.93
2018-04-29T04:46:37.460Z,65.21
2018-04-29T04:50:00.341Z,64.73
2018-04-29T04:53:24.015Z,64.48
2018-04-29T04:56:46.920Z,64.15
2018-04-29T05:00:11.573Z,64.17
2018-04-29T05:03:35.210Z,63.91
2018-04-29T05:06:58.162Z,63.68
2018-04-29T05:10:21.028Z,63.02
2018-04-29T05:13:43.929Z,63.20
2018-04-29T05:17:07.839Z,63.24
2018-04-29T05:20:30.750Z,62.85
2018-04-29T05:23:53.671Z,63.04
2018-04-29T05:27:16.586Z,62.89
2018-04-29T05:30:39.432Z,63.27
2018-04-29T05:34:02.273Z,63.36
2018-04-29T05:37:25.173Z,63.25
2018-04-29T05:40:48.098Z,62.68
2018-04-29T05:44:10.984Z,62.45
2018-04-29T05:47:34.632Z,62.33
2018-04-29T05:50:57.575Z,62.33
2018-04-29T05:54:21.206Z,62.14
2018-04-29T06:01:47.227Z,61.90
2018-04-29T06:05:18.348Z,61.75
2018-04-29T06:12:30.536Z,60.90
2018-04-29T06:15:53.483Z,61.50
2018-04-29T06:19:42.985Z,61.25
2018-04-29T06:30:42.385Z,60.89
2018-04-29T06:34:36.066Z,60.34
2018-04-29T06:38:10.728Z,60.39
2018-04-29T06:45:09.740Z,59.50
2018-04-29T06:48:34.329Z,59.55
2018-04-29T06:51:58.834Z,58.89
2018-04-29T06:55:21.768Z,58.04
2018-04-29T06:58:44.601Z,58.43
2018-04-29T07:02:07.444Z,58.55
2018-04-29T07:05:30.315Z,57.88
2018-04-29T07:08:53.257Z,57.87
2018-04-29T07:12:16.870Z,57.23
2018-04-29T07:15:39.730Z,56.46
2018-04-29T07:19:02.556Z,56.71
2018-04-29T07:22:25.429Z,55.84
2018-04-29T07:25:48.333Z,55.89
2018-04-29T07:29:11.214Z,54.79
2018-04-29T07:32:34.830Z,55.58
2018-04-29T07:35:57.710Z,55.87
2018-04-29T07:39:21.352Z,55.62
2018-04-29T07:42:44.265Z,55.52
2018-04-29T07:46:07.160Z,55.05
2018-04-29T07:49:30.022Z,54.56
2018-04-29T07:52:52.961Z,53.85
2018-04-29T07:56:17.321Z,53.98
2018-04-29T07:59:40.200Z,53.50
2018-04-29T08:03:03.089Z,53.19
2018-04-29T08:06:26.024Z,52.37
2018-04-29T08:09:48.907Z,52.72
2018-04-29T08:13:11.778Z,52.14
2018-04-29T08:16:34.694Z,51.70
2018-04-29T08:19:57.531Z,51.30
2018-04-29T08:23:20.402Z,50.99
2018-04-29T08:26:43.301Z,50.41
2018-04-29T08:30:06.187Z,50.75
2018-04-29T08:33:29.811Z,51.03
2018-04-29T08:36:52.661Z,50.87
2018-04-29T08:40:15.612Z,50.51
2018-04-29T08:43:39.454Z,50.56
2018-04-29T08:47:03.173Z,49.58
2018-04-29T08:54:12.493Z,47.72
2018-04-29T08:57:44.576Z,48.05
2018-04-29T09:01:18.023Z,48.32
2018-04-29T09:05:13.008Z,46.98
2018-04-29T09:08:44.991Z,47.14
2018-04-29T09:12:07.953Z,46.72
2018-04-29T09:15:30.836Z,45.51
2018-04-29T09:18:53.727Z,45.35
2018-04-29T09:22:25.410Z,45.34
2018-04-29T09:25:48.337Z,44.16
2018-04-29T09:29:11.640Z,44.97
2018-04-29T09:32:34.500Z,44.51
2018-04-29T09:35:57.410Z,44.23
2018-04-29T09:39:20.752Z,44.37
2018-04-29T09:42:43.720Z,43.49
2018-04-29T09:46:07.846Z,42.68
2018-04-29T09:49:31.504Z,42.49
2018-04-29T09:52:54.404Z,42.52
2018-04-29T09:56:17.349Z,42.99
2018-04-29T09:59:40.687Z,42.46
2018-04-29T10:03:07.816Z,41.67
2018-04-29T10:06:31.113Z,41.19
2018-04-29T10:10:17.431Z,41.43
2018-04-29T10:17:24.287Z,39.75
2018-04-29T10:20:47.177Z,40.47
2018-04-29T10:24:11.344Z,40.15
2018-04-29T10:27:34.345Z,40.50
2018-04-29T10:30:57.641Z,39.95
2018-04-29T10:34:21.224Z,39.45
2018-04-29T10:37:45.246Z,39.29
2018-04-29T10:41:10.224Z,38.77
2018-04-29T10:44:34.359Z,38.21
2018-04-29T10:47:57.693Z,37.93
2018-04-29T10:51:21.005Z,38.51
2018-04-29T10:54:44.643Z,37.49
2018-04-29T10:58:08.032Z,37.64
2018-04-29T11:02:17.906Z,38.82
2018-04-29T11:06:05.954Z,38.41
2018-04-29T11:09:29.525Z,36.58
2018-04-29T11:12:52.961Z,35.90
2018-04-29T11:16:16.308Z,35.25
2018-04-29T11:19:39.606Z,36.14
2018-04-29T11:23:02.972Z,37.47
2018-04-29T11:26:26.340Z,38.46
2018-04-29T11:29:50.396Z,35.62
2018-04-29T11:33:13.698Z,33.30
2018-04-29T11:36:37.044Z,33.62
2018-04-29T11:40:00.398Z,32.85
2018-04-29T11:43:23.749Z,31.26
2018-04-29T11:46:47.026Z,30.25
2018-04-29T11:50:10.359Z,29.24
2018-04-29T11:53:34.531Z,28.52
2018-04-29T11:56:58.555Z,27.42
2018-04-29T12:00:21.849Z,27.57
2018-04-29T12:03:45.216Z,27.57
2018-04-29T12:07:08.594Z,26.62
2018-04-29T12:10:32.733Z,25.59
2018-04-29T12:13:56.071Z,25.88
2018-04-29T12:17:19.433Z,25.10
2018-04-29T12:20:42.779Z,24.80
2018-04-29T12:24:06.109Z,24.45
2018-04-29T12:27:30.333Z,23.57
2018-04-29T12:30:54.613Z,23.65
2018-04-29T12:34:18.492Z,23.76
2018-04-29T12:37:41.924Z,24.14
2018-04-29T12:41:06.206Z,23.35
2018-04-29T12:44:30.676Z,22.45
2018-04-29T12:47:53.998Z,22.18
2018-04-29T12:51:17.613Z,22.57
2018-04-29T12:54:42.511Z,22.61
2018-04-29T12:58:05.845Z,21.39
2018-04-29T13:01:29.963Z,20.76
2018-04-29T13:04:53.247Z,21.72
2018-04-29T13:08:16.632Z,20.95
2018-04-29T13:11:40.000Z,22.07
2018-04-29T13:15:05.115Z,21.36
2018-04-29T13:18:29.223Z,20.66
2018-04-29T13:21:52.576Z,20.69
2018-04-29T13:25:15.798Z,20.74
2018-04-29T13:28:39.137Z,20.22
2018-04-29T13:32:02.445Z,19.82
2018-04-29T13:35:29.589Z,20.14
2018-04-29T13:38:52.935Z,20.36
2018-04-29T13:42:16.392Z,19.72
2018-04-29T13:45:39.661Z,19.85
2018-04-29T13:49:03.497Z,20.27
2018-04-29T13:52:26.897Z,19.43
2018-04-29T13:55:50.737Z,20.50
2018-04-29T13:59:14.054Z,19.39
2018-04-29T14:10:32.429Z,19.92
2018-04-29T14:13:55.786Z,20.38
2018-04-29T14:17:25.334Z,20.82
2018-04-29T14:20:49.060Z,22.05
2018-04-29T14:24:11.912Z,22.96
2018-04-29T14:27:34.776Z,24.12
2018-04-29T14:30:57.673Z,25.63
2018-04-29T14:34:20.521Z,25.40
2018-04-29T14:37:43.412Z,26.22
2018-04-29T14:44:51.790Z,26.29
2018-04-29T14:52:15.901Z,23.45
2018-04-29T14:55:52.258Z,23.99
2018-04-29T14:59:22.127Z,23.86
2018-04-29T15:02:55.450Z,24.11
2018-04-29T15:06:20.095Z,24.45
2018-04-29T15:09:42.955Z,24.14
2018-04-29T15:13:05.925Z,23.43
2018-04-29T15:16:28.977Z,23.92
2018-04-29T15:19:52.850Z,23.79
2018-04-29T15:23:15.928Z,24.40
2018-04-29T15:26:38.863Z,24.76
2018-04-29T15:30:03.839Z,25.05
2018-04-29T15:33:27.671Z,26.05
2018-04-29T15:36:50.680Z,26.22
2018-04-29T15:40:15.801Z,26.80
2018-04-29T15:43:39.540Z,26.38
2018-04-29T15:47:04.967Z,26.48
2018-04-29T15:50:29.008Z,26.76
2018-04-29T15:53:54.745Z,26.65
2018-04-29T15:57:23.001Z,23.03
2018-04-29T16:00:45.966Z,23.07
2018-04-29T16:07:53.628Z,22.98
2018-04-29T16:11:17.387Z,23.72
2018-04-29T16:14:40.242Z,25.59
2018-04-29T16:18:03.140Z,25.38
2018-04-29T16:21:26.014Z,23.33
2018-04-29T16:24:48.982Z,22.99
2018-04-29T16:32:08.011Z,23.38
2018-04-29T16:35:31.197Z,23.66
2018-04-29T16:38:54.065Z,23.96
2018-04-29T16:42:17.799Z,23.72
2018-04-29T16:45:41.440Z,23.91
2018-04-29T16:49:04.357Z,24.15
2018-04-29T16:52:27.289Z,24.44
2018-04-29T16:55:51.035Z,25.05
2018-04-29T16:59:13.970Z,25.24
2018-04-29T17:02:36.913Z,25.25
2018-04-29T17:05:59.840Z,25.48
2018-04-29T17:09:22.826Z,25.63
2018-04-29T17:12:45.679Z,26.28
2018-04-29T17:16:08.588Z,28.98
2018-04-29T17:19:31.440Z,29.34
2018-04-29T17:22:54.288Z,29.52
2018-04-29T17:26:17.266Z,29.81
2018-04-29T17:29:41.329Z,29.46
2018-04-29T17:33:04.558Z,26.26
2018-04-29T17:36:27.637Z,24.63
2018-04-29T17:39:50.555Z,24.63
2018-04-29T17:43:13.435Z,24.70
2018-04-29T17:46:37.049Z,24.47
2018-04-29T17:49:59.912Z,24.43
2018-04-29T17:53:24.388Z,24.21
2018-04-29T17:56:49.895Z,24.33
2018-04-29T18:00:12.859Z,24.68
2018-04-29T18:03:35.723Z,24.87
2018-04-29T18:06:58.583Z,24.95
2018-04-29T18:10:21.460Z,24.77
2018-04-29T18:13:45.088Z,24.49
2018-04-29T18:17:08.118Z,24.80
2018-04-29T18:20:31.016Z,25.19
2018-04-29T18:23:54.638Z,24.98
2018-04-29T18:27:17.494Z,25.07
2018-04-29T18:30:40.468Z,25.01
2018-04-29T18:34:03.362Z,26.17
2018-04-29T18:37:27.064Z,28.43
2018-04-29T18:40:49.958Z,29.43
2018-04-29T18:47:55.155Z,29.69
2018-04-29T18:51:18.140Z,30.19
2018-04-29T18:54:41.047Z,28.49
2018-04-29T18:58:03.922Z,29.65
2018-04-29T19:01:26.854Z,29.75
2018-04-29T19:04:51.274Z,30.26
2018-04-29T19:08:14.869Z,30.20
2018-04-29T19:11:37.857Z,30.64
2018-04-29T19:15:00.906Z,30.76
2018-04-29T19:18:23.888Z,30.14
2018-04-29T19:30:43.754Z,29.51
2018-04-29T19:34:10.584Z,30.51
2018-04-29T19:37:49.834Z,30.16
2018-04-29T19:41:25.585Z,29.87
2018-04-29T19:44:48.612Z,30.19
2018-04-29T19:48:11.539Z,30.15
2018-04-29T19:51:36.931Z,29.93
2018-04-29T19:55:00.567Z,30.26
2018-04-29T19:58:23.578Z,30.00
2018-04-29T20:01:47.403Z,29.81
2018-04-29T20:05:10.261Z,29.00
2018-04-29T20:08:37.385Z,28.98
2018-04-29T20:12:00.680Z,29.42
2018-04-29T20:15:23.557Z,29.79
2018-04-29T20:18:48.142Z,29.92
2018-04-29T20:22:10.990Z,30.53
2018-04-29T20:25:34.556Z,30.53
2018-04-29T20:28:57.423Z,30.95
2018-04-29T20:32:33.296Z,30.71
2018-04-29T20:35:56.946Z,30.13
2018-04-29T20:39:20.587Z,30.28
2018-04-29T20:42:44.212Z,29.93
2018-04-29T20:46:07.075Z,29.92
2018-04-29T20:49:31.444Z,29.82
2018-04-29T20:52:55.091Z,29.78
2018-04-29T20:56:18.025Z,29.05
2018-04-29T20:59:41.658Z,29.05
2018-04-29T21:03:04.556Z,29.31
2018-04-29T21:06:28.475Z,28.91
2018-04-29T21:09:51.349Z,29.09
2018-04-29T21:13:14.273Z,29.23
2018-04-29T21:16:37.114Z,29.32
2018-04-29T21:19:59.985Z,29.30
2018-04-29T21:23:22.891Z,29.72
2018-04-29T21:26:45.794Z,29.61
2018-04-29T21:30:08.696Z,29.48
2018-04-29T21:33:32.365Z,29.81
2018-04-29T21:36:55.241Z,29.74
2018-04-29T21:40:18.149Z,29.47
2018-04-29T21:43:41.015Z,29.74
2018-04-29T21:47:05.366Z,31.06
2018-04-29T21:50:28.214Z,31.17
2018-04-29T21:53:51.108Z,31.03
2018-04-29T21:57:14.783Z,30.91
2018-04-29T22:00:37.663Z,32.44
2018-04-29T22:04:01.288Z,38.27
2018-04-29T22:07:24.116Z,51.92
2018-04-29T22:10:46.969Z,55.90
2018-04-29T22:14:10.844Z,58.23
2018-04-29T22:17:33.737Z,59.42
2018-04-29T22:20:57.335Z,60.07
2018-04-29T22:24:20.183Z,59.99
2018-04-29T22:27:43.037Z,60.53
2018-04-29T22:31:05.894Z,60.35
2018-04-29T22:34:28.838Z,60.31
2018-04-29T22:37:52.629Z,60.96
2018-04-29T22:41:16.235Z,61.28
2018-04-29T22:44:39.092Z,61.52
2018-04-29T22:48:01.967Z,63.04
2018-04-29T22:51:25.723Z,63.23
2018-04-29T22:54:48.645Z,63.90
2018-04-29T22:58:11.635Z,64.38
2018-04-29T23:01:34.618Z,66.07
2018-04-29T23:04:57.485Z,66.55
2018-04-29T23:08:20.332Z,66.76
2018-04-29T23:11:43.191Z,66.74
2018-04-29T23:15:06.024Z,67.38
2018-04-29T23:18:28.903Z,69.16
2018-04-29T23:21:52.739Z,65.50
2018-04-29T23:25:15.597Z,59.32
2018-04-29T23:28:38.440Z,57.47
2018-04-29T23:32:01.323Z,56.11
2018-04-29T23:35:25.972Z,55.66
2018-04-29T23:38:48.792Z,57.17
2018-04-29T23:42:12.677Z,58.01
2018-04-29T23:45:35.532Z,59.78
2018-04-29T23:48:59.159Z,61.49
2018-04-29T23:52:22.021Z,63.35
2018-04-29T23:55:44.930Z,63.97
2018-04-29T23:59:07.778Z,64.34
